Time;durP1;ratioP1;P1;durP2;ratioP2;P2;SDS_P1;SDS_P2;PMS_P1;PMS_P2;Temp;Humidity;BMP_temperature;BMP_pressure;BME280_temperature;BME280_humidity;BME280_pressure;Samples;Min_cycle;Max_cycle;Signal;HPM_P1;HPM_P2
2023/10/27 00:00:05;;;;;;;;;;;9.80;99.90;;;;;;5006925;28;19931;-73
2023/10/27 00:02:31;;;;;;;;;;;9.80;99.90;;;;;;5014805;28;20435;-72
2023/10/27 00:04:57;;;;;;;;;;;9.80;99.90;;;;;;4978126;28;19925;-73
2023/10/27 00:07:23;;;;;;;;;;;9.80;99.90;;;;;;5023014;28;19924;-74
2023/10/27 00:09:49;;;;;;;;;;;9.80;99.90;;;;;;5024490;28;19929;-73
2023/10/27 00:12:15;;;;;;;;;;;9.70;99.90;;;;;;5006151;28;19936;-73
2023/10/27 00:14:40;;;;;;;;;;;9.70;99.90;;;;;;5026310;28;20311;-73
2023/10/27 00:17:06;;;;;;;;;;;9.70;99.90;;;;;;4995440;28;19921;-74
2023/10/27 00:19:32;;;;;;;;;;;9.70;99.90;;;;;;5033037;28;20348;-73
2023/10/27 00:21:58;;;;;;;;;;;9.70;99.90;;;;;;5008777;28;19928;-73
2023/10/27 00:24:24;;;;;;;;;;;9.60;99.90;;;;;;5021677;28;20283;-72
2023/10/27 00:26:50;;;;;;;;;;;9.60;99.90;;;;;;4987814;28;19921;-72
2023/10/27 00:29:16;;;;;;;;;;;9.50;99.90;;;;;;5004412;28;19933;-73
2023/10/27 00:31:42;;;;;;;;;;;9.50;99.90;;;;;;5017497;28;19920;-74
2023/10/27 00:34:08;;;;;;;;;;;9.50;99.90;;;;;;5024166;28;19929;-73
2023/10/27 00:36:34;;;;;;;;;;;9.40;99.90;;;;;;5017199;28;19928;-73
2023/10/27 00:39:00;;;;;;;;;;;9.40;99.90;;;;;;5021699;28;19929;-73
2023/10/27 00:41:28;;;;;;;;;;;9.40;99.90;;;;;;4993998;28;19928;-72
2023/10/27 00:43:54;;;;;;;;;;;9.30;99.90;;;;;;5005027;28;19929;-72
2023/10/27 00:46:20;;;;;;;;;;;9.30;99.90;;;;;;4989156;28;20285;-74
2023/10/27 00:48:45;;;;;;;;;;;9.30;99.90;;;;;;5011697;28;19925;-73
2023/10/27 00:51:12;;;;;;;;;;;9.30;99.90;;;;;;5003316;28;19930;-71
2023/10/27 00:53:38;;;;;;;;;;;9.30;99.90;;;;;;5011476;28;19932;-72
2023/10/27 00:56:04;;;;;;;;;;;9.20;99.90;;;;;;5030870;28;20480;-72
2023/10/27 00:58:30;;;;;;;;;;;9.20;99.90;;;;;;5039786;28;19956;-72
2023/10/27 01:01:00;;;;;;;;;;;9.30;99.90;;;;;;5004562;28;19925;-72
2023/10/27 01:03:26;;;;;;;;;;;9.20;99.90;;;;;;5013436;28;20017;-71
2023/10/27 01:05:52;;;;;;;;;;;9.20;99.90;;;;;;4984097;28;19928;-73
2023/10/27 01:08:18;;;;;;;;;;;9.30;99.90;;;;;;5020119;28;19926;-72
2023/10/27 01:10:44;;;;;;;;;;;9.20;99.90;;;;;;4984893;28;19931;-72
2023/10/27 01:13:10;;;;;;;;;;;9.30;99.90;;;;;;5013372;28;19932;-72
2023/10/27 01:15:36;;;;;;;;;;;9.30;99.90;;;;;;4993577;28;20161;-72
2023/10/27 01:18:02;;;;;;;;;;;9.30;99.90;;;;;;5018050;28;19999;-75
2023/10/27 01:20:28;;;;;;;;;;;9.30;99.90;;;;;;5004489;28;19924;-72
2023/10/27 01:22:54;;;;;;;;;;;9.20;99.90;;;;;;5048953;28;19925;-73
2023/10/27 01:25:20;;;;;;;;;;;9.20;99.90;;;;;;4995512;28;19929;-72
2023/10/27 01:27:46;;;;;;;;;;;9.30;99.90;;;;;;5027154;28;20303;-71
2023/10/27 01:30:12;;;;;;;;;;;9.20;99.90;;;;;;4981402;28;19925;-71
2023/10/27 01:32:40;;;;;;;;;;;9.30;99.90;;;;;;5018649;28;19921;-72
2023/10/27 01:35:07;;;;;;;;;;;9.30;99.90;;;;;;4977764;28;19937;-71
2023/10/27 01:37:33;;;;;;;;;;;9.30;99.90;;;;;;5022500;28;19928;-73
2023/10/27 01:39:59;;;;;;;;;;;9.40;99.90;;;;;;4996068;28;19925;-72
2023/10/27 01:42:25;;;;;;;;;;;9.30;99.90;;;;;;5040846;28;19925;-73
2023/10/27 01:44:51;;;;;;;;;;;9.30;99.90;;;;;;5022057;28;19929;-72
2023/10/27 01:47:17;;;;;;;;;;;9.30;99.90;;;;;;4994989;28;19921;-72
2023/10/27 01:49:43;;;;;;;;;;;9.40;99.90;;;;;;5022279;28;19922;-73
2023/10/27 01:52:09;;;;;;;;;;;9.40;99.90;;;;;;5025884;28;20305;-73
2023/10/27 01:54:35;;;;;;;;;;;9.40;99.90;;;;;;5008587;28;19983;-72
2023/10/27 01:57:01;;;;;;;;;;;9.40;99.90;;;;;;4993778;28;20504;-72
2023/10/27 01:59:29;;;;;;;;;;;9.40;99.90;;;;;;5015578;28;20597;-72
2023/10/27 02:01:54;;;;;;;;;;;9.40;99.90;;;;;;4992527;28;19925;-72
2023/10/27 02:04:20;;;;;;;;;;;9.40;99.90;;;;;;5022599;28;20030;-73
2023/10/27 02:06:47;;;;;;;;;;;9.40;99.90;;;;;;5006654;28;19987;-72
2023/10/27 02:09:13;;;;;;;;;;;9.40;99.90;;;;;;5000919;28;19922;-71
2023/10/27 02:11:39;;;;;;;;;;;9.40;99.90;;;;;;4986396;28;19931;-71
2023/10/27 02:14:04;;;;;;;;;;;9.50;99.90;;;;;;5007965;28;19971;-72
2023/10/27 02:16:30;;;;;;;;;;;9.50;99.90;;;;;;5018636;28;19932;-74
2023/10/27 02:18:56;;;;;;;;;;;9.50;99.90;;;;;;5029060;28;19929;-72
2023/10/27 02:21:22;;;;;;;;;;;9.50;99.90;;;;;;5015132;28;19924;-72
2023/10/27 02:23:48;;;;;;;;;;;9.50;99.90;;;;;;5033027;28;19925;-73
2023/10/27 02:26:14;;;;;;;;;;;9.50;99.90;;;;;;5006064;28;20682;-73
2023/10/27 02:28:40;;;;;;;;;;;9.50;99.90;;;;;;5030874;28;20623;-72
2023/10/27 02:31:06;;;;;;;;;;;9.50;99.90;;;;;;5010889;28;19931;-73
2023/10/27 02:33:31;;;;;;;;;;;9.50;99.90;;;;;;5033938;28;19959;-72
2023/10/27 02:35:57;;;;;;;;;;;9.50;99.90;;;;;;4994189;28;19961;-73
2023/10/27 02:38:23;;;;;;;;;;;9.50;99.90;;;;;;5005697;28;21063;-72
2023/10/27 02:40:49;;;;;;;;;;;9.50;99.90;;;;;;4998097;28;20402;-72
2023/10/27 02:43:15;;;;;;;;;;;9.50;99.90;;;;;;5039451;28;19925;-71
2023/10/27 02:45:41;;;;;;;;;;;9.60;99.90;;;;;;4995681;28;19925;-71
2023/10/27 02:48:07;;;;;;;;;;;9.60;99.90;;;;;;5012156;28;19929;-71
2023/10/27 02:50:33;;;;;;;;;;;9.50;99.90;;;;;;4980282;28;19924;-72
2023/10/27 02:52:59;;;;;;;;;;;9.60;99.90;;;;;;5030271;28;19921;-72
2023/10/27 02:55:25;;;;;;;;;;;9.60;99.90;;;;;;4990734;28;19944;-71
2023/10/27 02:57:50;;;;;;;;;;;9.60;99.90;;;;;;5002566;28;20434;-71
2023/10/27 03:00:16;;;;;;;;;;;9.60;99.90;;;;;;4961456;28;19936;-72
2023/10/27 03:02:42;;;;;;;;;;;9.60;99.90;;;;;;5014246;28;19929;-72
2023/10/27 03:05:08;;;;;;;;;;;9.60;99.90;;;;;;5008124;28;19931;-74
2023/10/27 03:07:34;;;;;;;;;;;9.60;99.90;;;;;;5011574;28;20789;-72
2023/10/27 03:10:00;;;;;;;;;;;9.60;99.90;;;;;;4980928;28;19925;-73
2023/10/27 03:12:26;;;;;;;;;;;9.70;99.90;;;;;;5036276;28;19926;-71
2023/10/27 03:14:52;;;;;;;;;;;9.60;99.90;;;;;;5030191;28;19936;-72
2023/10/27 03:17:18;;;;;;;;;;;9.60;99.90;;;;;;4982448;28;19928;-72
2023/10/27 03:19:43;;;;;;;;;;;9.70;99.90;;;;;;5006116;28;20409;-73
2023/10/27 03:22:09;;;;;;;;;;;9.60;99.90;;;;;;5005975;28;19924;-72
2023/10/27 03:24:35;;;;;;;;;;;9.70;99.90;;;;;;5020152;28;19929;-72
2023/10/27 03:27:02;;;;;;;;;;;9.70;99.90;;;;;;5023182;28;19924;-72
2023/10/27 03:29:27;;;;;;;;;;;9.70;99.90;;;;;;5020833;28;19921;-72
2023/10/27 03:31:54;;;;;;;;;;;9.70;99.90;;;;;;5024149;28;19924;-72
2023/10/27 03:34:20;;;;;;;;;;;9.70;99.90;;;;;;5019872;28;19936;-72
2023/10/27 03:36:46;;;;;;;;;;;9.60;99.90;;;;;;5027193;28;19924;-72
2023/10/27 03:39:12;;;;;;;;;;;9.60;99.90;;;;;;5022698;28;19927;-72
2023/10/27 03:41:38;;;;;;;;;;;9.60;99.90;;;;;;5019285;28;19924;-72
2023/10/27 03:44:04;;;;;;;;;;;9.60;99.90;;;;;;5021178;28;19946;-72
2023/10/27 03:46:30;;;;;;;;;;;9.70;99.90;;;;;;5004265;28;20020;-73
2023/10/27 03:48:58;;;;;;;;;;;9.60;99.90;;;;;;5008033;28;20380;-71
2023/10/27 03:51:25;;;;;;;;;;;9.60;99.90;;;;;;4997050;28;19932;-72
2023/10/27 03:53:53;;;;;;;;;;;9.60;99.90;;;;;;5011562;28;20323;-72
2023/10/27 03:56:19;;;;;;;;;;;9.70;99.90;;;;;;4995511;28;19925;-72
2023/10/27 03:58:45;;;;;;;;;;;9.60;99.90;;;;;;5010956;28;19921;-73
2023/10/27 04:01:11;;;;;;;;;;;9.60;99.90;;;;;;4993459;28;20328;-72
2023/10/27 04:03:36;;;;;;;;;;;9.70;99.90;;;;;;5019332;28;19935;-73
2023/10/27 04:06:03;;;;;;;;;;;9.70;99.90;;;;;;5018399;28;20326;-72
2023/10/27 04:08:31;;;;;;;;;;;9.60;99.90;;;;;;5040191;28;19932;-71
2023/10/27 04:10:57;;;;;;;;;;;9.60;99.90;;;;;;5004338;28;19925;-73
2023/10/27 04:13:23;;;;;;;;;;;9.60;99.90;;;;;;5007272;28;20575;-72
2023/10/27 04:15:49;;;;;;;;;;;9.70;99.90;;;;;;4991955;28;19960;-72
2023/10/27 04:18:14;;;;;;;;;;;9.70;99.90;;;;;;5037641;28;21460;-72
2023/10/27 04:20:40;;;;;;;;;;;9.70;99.90;;;;;;5006551;28;19927;-72
2023/10/27 04:23:07;;;;;;;;;;;9.60;99.90;;;;;;5022800;28;20418;-74
2023/10/27 04:25:35;;;;;;;;;;;9.70;99.90;;;;;;5012015;28;19924;-72
2023/10/27 04:28:02;;;;;;;;;;;9.70;99.90;;;;;;5057384;28;19925;-72
2023/10/27 04:30:31;;;;;;;;;;;9.70;99.90;;;;;;5003548;28;19938;-72
2023/10/27 04:32:57;;;;;;;;;;;9.70;99.90;;;;;;4997942;28;20312;-73
2023/10/27 04:35:23;;;;;;;;;;;9.70;99.90;;;;;;4987674;28;19932;-72
2023/10/27 04:37:50;;;;;;;;;;;9.70;99.90;;;;;;5034275;28;20308;-73
2023/10/27 04:40:16;;;;;;;;;;;9.70;99.90;;;;;;5001253;28;20480;-73
2023/10/27 04:42:42;;;;;;;;;;;9.70;99.90;;;;;;5047566;28;19925;-72
2023/10/27 04:45:08;;;;;;;;;;;9.70;99.90;;;;;;4999116;28;19921;-72
2023/10/27 04:47:34;;;;;;;;;;;9.70;99.90;;;;;;5053797;28;19929;-73
2023/10/27 04:50:00;;;;;;;;;;;9.70;99.90;;;;;;4987296;28;20284;-71
2023/10/27 04:52:26;;;;;;;;;;;9.60;99.90;;;;;;5054399;28;19925;-72
2023/10/27 04:54:53;;;;;;;;;;;9.70;99.90;;;;;;5022468;28;19929;-71
2023/10/27 04:57:19;;;;;;;;;;;9.60;99.90;;;;;;4985611;28;19923;-72
2023/10/27 04:59:45;;;;;;;;;;;9.60;99.90;;;;;;5004814;28;19922;-72
2023/10/27 05:02:12;;;;;;;;;;;9.60;99.90;;;;;;5005656;28;19921;-72
2023/10/27 05:04:38;;;;;;;;;;;9.60;99.90;;;;;;5002625;28;19929;-72
2023/10/27 05:07:05;;;;;;;;;;;9.60;99.90;;;;;;5024368;28;20306;-72
2023/10/27 05:09:32;;;;;;;;;;;9.60;99.90;;;;;;5023995;28;20315;-71
2023/10/27 05:11:58;;;;;;;;;;;9.60;99.90;;;;;;5022543;28;21264;-70
2023/10/27 05:14:24;;;;;;;;;;;9.60;99.90;;;;;;5028651;28;19925;-71
2023/10/27 05:16:50;;;;;;;;;;;9.60;99.90;;;;;;5021656;28;19930;-72
2023/10/27 05:19:16;;;;;;;;;;;9.60;99.90;;;;;;5029214;28;19921;-72
2023/10/27 05:21:42;;;;;;;;;;;9.50;99.90;;;;;;5031399;28;19928;-72
2023/10/27 05:24:09;;;;;;;;;;;9.60;99.90;;;;;;5024985;28;19921;-73
2023/10/27 05:26:35;;;;;;;;;;;9.60;99.90;;;;;;5011323;28;19928;-74
2023/10/27 05:29:01;;;;;;;;;;;9.50;99.90;;;;;;5026518;28;19929;-71
2023/10/27 05:31:27;;;;;;;;;;;9.60;99.90;;;;;;5020178;28;20482;-72
2023/10/27 05:33:53;;;;;;;;;;;9.50;99.90;;;;;;5031516;28;19929;-72
2023/10/27 05:36:19;;;;;;;;;;;9.50;99.90;;;;;;5031815;28;20319;-73
2023/10/27 05:38:45;;;;;;;;;;;9.50;99.90;;;;;;5033847;28;19929;-73
2023/10/27 05:41:11;;;;;;;;;;;9.50;99.90;;;;;;5002892;28;19925;-72
2023/10/27 05:43:37;;;;;;;;;;;9.50;99.90;;;;;;5016279;28;20620;-72
2023/10/27 05:46:03;;;;;;;;;;;9.50;99.90;;;;;;4981519;28;19935;-72
2023/10/27 05:48:29;;;;;;;;;;;9.40;99.90;;;;;;5010441;28;20545;-73
2023/10/27 05:50:54;;;;;;;;;;;9.40;99.90;;;;;;4989254;28;20002;-72
2023/10/27 05:53:20;;;;;;;;;;;9.40;99.90;;;;;;5023223;28;19926;-71
2023/10/27 05:55:46;;;;;;;;;;;9.40;99.90;;;;;;4988795;28;19932;-71
2023/10/27 05:58:12;;;;;;;;;;;9.40;99.90;;;;;;5011314;28;19929;-72
2023/10/27 06:00:38;;;;;;;;;;;9.40;99.90;;;;;;4989296;28;19925;-72
2023/10/27 06:03:04;;;;;;;;;;;9.40;99.90;;;;;;5010623;28;20319;-72
2023/10/27 06:05:30;;;;;;;;;;;9.40;99.90;;;;;;4988499;28;19924;-73
2023/10/27 06:07:56;;;;;;;;;;;9.40;99.90;;;;;;5045894;28;19921;-73
2023/10/27 06:10:22;;;;;;;;;;;9.40;99.90;;;;;;5003186;28;19935;-72
2023/10/27 06:12:47;;;;;;;;;;;9.40;99.90;;;;;;5033374;28;19931;-73
2023/10/27 06:15:13;;;;;;;;;;;9.40;99.90;;;;;;5012952;28;20683;-72
2023/10/27 06:17:39;;;;;;;;;;;9.40;99.90;;;;;;5032976;28;20007;-71
2023/10/27 06:20:05;;;;;;;;;;;9.40;99.90;;;;;;4997859;28;20732;-72
2023/10/27 06:22:31;;;;;;;;;;;9.40;99.90;;;;;;5032296;28;19922;-72
2023/10/27 06:24:57;;;;;;;;;;;9.40;99.90;;;;;;4976559;28;19975;-72
2023/10/27 06:27:23;;;;;;;;;;;9.40;99.90;;;;;;5017443;28;19983;-72
2023/10/27 06:29:49;;;;;;;;;;;9.30;99.90;;;;;;5006372;28;19941;-71
2023/10/27 06:32:16;;;;;;;;;;;9.30;99.90;;;;;;5008662;28;20339;-73
2023/10/27 06:34:42;;;;;;;;;;;9.30;99.90;;;;;;5031658;28;19921;-73
2023/10/27 06:37:08;;;;;;;;;;;9.20;99.90;;;;;;4972707;28;19925;-72
2023/10/27 06:39:33;;;;;;;;;;;9.20;99.90;;;;;;5002508;28;20293;-72
2023/10/27 06:41:59;;;;;;;;;;;9.10;99.90;;;;;;5023400;28;19931;-73
2023/10/27 06:44:25;;;;;;;;;;;9.20;99.90;;;;;;5022571;28;19929;-72
2023/10/27 06:46:53;;;;;;;;;;;9.10;99.90;;;;;;4995215;28;19925;-72
2023/10/27 06:49:19;;;;;;;;;;;9.10;99.90;;;;;;5021624;28;19952;-73
2023/10/27 06:51:47;;;;;;;;;;;9.10;99.90;;;;;;5012903;28;20015;-72
2023/10/27 06:54:13;;;;;;;;;;;9.10;99.90;;;;;;5020477;28;20306;-72
2023/10/27 06:56:39;;;;;;;;;;;9.10;99.90;;;;;;4979769;28;19932;-72
2023/10/27 06:59:05;;;;;;;;;;;9.00;99.90;;;;;;5021227;28;19921;-72
2023/10/27 07:01:31;;;;;;;;;;;9.00;99.90;;;;;;5035983;28;19927;-72
2023/10/27 07:03:58;;;;;;;;;;;9.00;99.90;;;;;;5032523;28;19925;-72
2023/10/27 07:06:24;;;;;;;;;;;9.10;99.90;;;;;;5002804;28;19928;-73
2023/10/27 07:08:50;;;;;;;;;;;9.10;99.90;;;;;;5010468;28;19956;-73
2023/10/27 07:11:16;;;;;;;;;;;9.10;99.90;;;;;;4994245;28;20292;-73
2023/10/27 07:13:42;;;;;;;;;;;9.20;99.90;;;;;;5061574;28;19925;-71
2023/10/27 07:16:08;;;;;;;;;;;9.20;99.90;;;;;;5006216;28;19929;-71
2023/10/27 07:18:34;;;;;;;;;;;9.20;99.90;;;;;;5035834;28;20406;-72
2023/10/27 07:20:59;;;;;;;;;;;9.20;99.90;;;;;;4985601;28;19998;-72
2023/10/27 07:23:25;;;;;;;;;;;9.30;99.90;;;;;;5003304;28;19929;-72
2023/10/27 07:25:52;;;;;;;;;;;9.30;99.90;;;;;;4990753;28;20602;-73
2023/10/27 07:28:18;;;;;;;;;;;9.30;99.90;;;;;;5025982;28;19929;-73
2023/10/27 07:30:44;;;;;;;;;;;9.30;99.90;;;;;;4997087;28;19935;-73
2023/10/27 07:33:10;;;;;;;;;;;9.40;99.90;;;;;;5023488;28;19931;-74
2023/10/27 07:35:36;;;;;;;;;;;9.40;99.90;;;;;;4998586;28;20238;-73
2023/10/27 07:38:03;;;;;;;;;;;9.50;99.90;;;;;;5012679;28;20407;-73
2023/10/27 07:40:29;;;;;;;;;;;9.40;99.90;;;;;;4998236;28;19924;-72
2023/10/27 07:42:59;;;;;;;;;;;9.50;99.90;;;;;;5049480;28;19925;-73
2023/10/27 07:45:25;;;;;;;;;;;9.50;99.90;;;;;;4975825;28;19925;-73
2023/10/27 07:47:51;;;;;;;;;;;9.50;99.90;;;;;;4993928;28;19922;-73
2023/10/27 07:50:17;;;;;;;;;;;9.60;99.90;;;;;;4972420;28;20379;-71
2023/10/27 07:52:44;;;;;;;;;;;9.60;99.90;;;;;;4983160;28;19929;-72
2023/10/27 07:55:10;;;;;;;;;;;9.60;99.90;;;;;;5003657;28;19936;-73
2023/10/27 07:57:36;;;;;;;;;;;9.70;99.90;;;;;;5047295;28;19925;-73
2023/10/27 08:00:03;;;;;;;;;;;9.70;99.90;;;;;;4981154;28;19925;-75
2023/10/27 08:02:32;;;;;;;;;;;9.70;99.90;;;;;;5069471;28;19925;-72
2023/10/27 08:04:58;;;;;;;;;;;9.80;99.90;;;;;;4997486;28;19925;-73
2023/10/27 08:07:24;;;;;;;;;;;9.80;99.90;;;;;;5022131;28;19932;-73
2023/10/27 08:09:50;;;;;;;;;;;9.80;99.90;;;;;;5054056;28;19925;-74
2023/10/27 08:12:16;;;;;;;;;;;9.90;99.90;;;;;;4995394;28;19929;-74
2023/10/27 08:14:42;;;;;;;;;;;9.90;99.90;;;;;;5024782;28;19936;-72
2023/10/27 08:17:08;;;;;;;;;;;9.90;99.90;;;;;;4995334;28;19933;-73
2023/10/27 08:19:35;;;;;;;;;;;10.00;99.90;;;;;;5006830;28;19939;-73
2023/10/27 08:22:01;;;;;;;;;;;10.00;99.90;;;;;;5010377;28;20430;-73
2023/10/27 08:24:27;;;;;;;;;;;9.90;99.90;;;;;;5038047;28;19933;-75
2023/10/27 08:26:52;;;;;;;;;;;9.90;99.90;;;;;;4998247;28;19931;-73
2023/10/27 08:29:18;;;;;;;;;;;10.00;99.90;;;;;;5007650;28;19937;-74
2023/10/27 08:31:44;;;;;;;;;;;10.00;99.90;;;;;;4990860;28;19925;-71
2023/10/27 08:34:11;;;;;;;;;;;10.10;99.90;;;;;;5005419;28;20443;-72
2023/10/27 08:36:37;;;;;;;;;;;10.10;99.90;;;;;;5001265;28;19929;-73
2023/10/27 08:39:03;;;;;;;;;;;10.10;99.90;;;;;;5011569;28;19929;-72
2023/10/27 08:41:29;;;;;;;;;;;10.20;99.90;;;;;;4987046;28;20296;-72
2023/10/27 08:43:56;;;;;;;;;;;10.20;99.90;;;;;;5020383;28;19927;-72
2023/10/27 08:46:24;;;;;;;;;;;10.20;99.90;;;;;;4993605;28;19947;-72
2023/10/27 08:48:50;;;;;;;;;;;10.30;99.90;;;;;;5028678;28;19936;-72
2023/10/27 08:51:16;;;;;;;;;;;10.40;99.90;;;;;;5016264;28;19921;-71
2023/10/27 08:53:45;;;;;;;;;;;10.40;99.90;;;;;;5060321;28;20308;-74
2023/10/27 08:56:12;;;;;;;;;;;10.30;99.90;;;;;;5006131;28;19924;-73
2023/10/27 08:58:49;;;;;;;;;;;10.30;99.90;;;;;;5062132;28;19999;-72
2023/10/27 09:01:15;;;;;;;;;;;10.30;99.90;;;;;;4989773;28;19925;-73
2023/10/27 09:03:41;;;;;;;;;;;10.50;99.90;;;;;;4991186;28;19984;-72
2023/10/27 09:06:07;;;;;;;;;;;10.40;99.90;;;;;;5007715;28;19924;-73
2023/10/27 09:08:34;;;;;;;;;;;10.40;99.90;;;;;;5045411;28;20016;-73
2023/10/27 09:11:00;;;;;;;;;;;10.40;99.90;;;;;;5014851;28;19921;-72
2023/10/27 09:13:25;;;;;;;;;;;10.40;99.90;;;;;;5033202;28;19921;-73
2023/10/27 09:15:51;;;;;;;;;;;10.50;99.90;;;;;;5006210;28;19935;-73
2023/10/27 09:18:32;;;;;;;;;;;10.50;99.90;;;;;;5030117;28;19928;-72
2023/10/27 09:20:58;;;;;;;;;;;10.50;99.90;;;;;;5013490;28;19928;-73
2023/10/27 09:23:24;;;;;;;;;;;10.50;99.90;;;;;;5029699;28;19927;-73
2023/10/27 09:25:56;;;;;;;;;;;10.60;99.90;;;;;;5004209;28;19936;-73
2023/10/27 09:28:27;;;;;;;;;;;10.60;99.90;;;;;;5008209;28;20308;-73
2023/10/27 09:30:53;;;;;;;;;;;10.60;99.90;;;;;;4987220;28;19921;-73
2023/10/27 09:33:23;;;;;;;;;;;10.60;99.90;;;;;;5007217;28;19925;-74
2023/10/27 09:35:51;;;;;;;;;;;10.60;99.90;;;;;;4991986;28;19928;-75
2023/10/27 09:38:17;;;;;;;;;;;10.60;99.90;;;;;;5016118;28;19932;-72
2023/10/27 09:40:45;;;;;;;;;;;10.70;99.90;;;;;;4997970;28;19921;-73
2023/10/27 09:43:14;;;;;;;;;;;10.70;99.90;;;;;;5031625;28;19921;-73
2023/10/27 09:45:45;;;;;;;;;;;10.70;99.90;;;;;;5002256;28;20065;-74
2023/10/27 09:48:12;;;;;;;;;;;10.70;99.90;;;;;;5018853;28;19921;-73
2023/10/27 09:50:39;;;;;;;;;;;10.70;99.90;;;;;;4985990;28;19948;-72
2023/10/27 09:53:06;;;;;;;;;;;10.60;99.90;;;;;;5011391;28;19928;-73
2023/10/27 09:55:32;;;;;;;;;;;10.70;99.90;;;;;;4946203;28;20562;-74
2023/10/27 09:57:59;;;;;;;;;;;10.70;99.90;;;;;;5054811;28;19998;-73
2023/10/27 10:00:27;;;;;;;;;;;10.70;99.90;;;;;;4998485;28;19932;-75
2023/10/27 10:02:54;;;;;;;;;;;10.80;99.90;;;;;;5014489;28;19929;-73
2023/10/27 10:05:20;;;;;;;;;;;10.80;99.90;;;;;;4988678;28;19928;-72
2023/10/27 10:07:52;;;;;;;;;;;10.80;99.90;;;;;;5057585;28;19979;-75
2023/10/27 10:10:19;;;;;;;;;;;10.90;99.90;;;;;;5001857;28;19925;-73
2023/10/27 10:13:04;;;;;;;;;;;10.80;99.90;;;;;;5011890;28;19925;-73
2023/10/27 10:15:31;;;;;;;;;;;10.90;99.90;;;;;;5003573;28;20289;-73
2023/10/27 10:17:57;;;;;;;;;;;11.00;99.90;;;;;;5004643;28;19922;-74
2023/10/27 10:20:56;;;;;;;;;;;11.00;99.90;;;;;;4999022;28;19925;-73
2023/10/27 10:23:24;;;;;;;;;;;11.00;99.90;;;;;;4985873;28;19922;-73
2023/10/27 10:25:51;;;;;;;;;;;11.00;99.90;;;;;;5013020;28;19936;-72
2023/10/27 10:28:17;;;;;;;;;;;11.10;99.90;;;;;;5011506;28;19921;-72
2023/10/27 10:30:45;;;;;;;;;;;11.10;99.90;;;;;;4983100;28;19932;-73
2023/10/27 10:33:19;;;;;;;;;;;11.10;99.90;;;;;;5006169;28;19932;-73
2023/10/27 10:35:46;;;;;;;;;;;11.00;99.90;;;;;;4981554;28;19940;-71
2023/10/27 10:38:21;;;;;;;;;;;11.00;99.90;;;;;;5042396;28;19941;-73
2023/10/27 10:40:50;;;;;;;;;;;11.00;99.90;;;;;;4996609;28;19932;-73
2023/10/27 10:43:20;;;;;;;;;;;11.00;99.90;;;;;;5037671;28;19925;-73
2023/10/27 10:45:56;;;;;;;;;;;11.10;99.90;;;;;;4999762;28;19921;-72
2023/10/27 10:48:24;;;;;;;;;;;11.10;99.90;;;;;;5032808;28;19936;-74
2023/10/27 10:50:51;;;;;;;;;;;11.10;99.90;;;;;;4995813;28;19932;-72
2023/10/27 10:53:19;;;;;;;;;;;11.10;99.90;;;;;;5008718;28;19922;-71
2023/10/27 10:55:46;;;;;;;;;;;11.10;99.90;;;;;;4991980;28;20399;-71
2023/10/27 10:58:25;;;;;;;;;;;11.10;99.90;;;;;;5035735;28;20304;-71
2023/10/27 11:00:52;;;;;;;;;;;11.10;99.90;;;;;;5016484;28;19929;-70
2023/10/27 11:03:21;;;;;;;;;;;11.10;99.90;;;;;;5032841;28;19926;-71
2023/10/27 11:05:47;;;;;;;;;;;11.10;99.90;;;;;;4988396;28;19924;-70
2023/10/27 11:08:21;;;;;;;;;;;11.10;99.90;;;;;;5021441;28;19930;-71
2023/10/27 11:10:47;;;;;;;;;;;11.20;99.90;;;;;;4973344;28;19925;-70
2023/10/27 11:13:13;;;;;;;;;;;11.20;99.90;;;;;;5002582;28;19921;-70
2023/10/27 11:15:48;;;;;;;;;;;11.20;99.90;;;;;;4979372;28;20004;-71
2023/10/27 11:18:14;;;;;;;;;;;11.20;99.90;;;;;;5001156;28;19925;-70
2023/10/27 11:20:41;;;;;;;;;;;11.20;99.90;;;;;;5007785;28;19936;-69
2023/10/27 11:23:11;;;;;;;;;;;11.10;99.90;;;;;;5002393;28;20554;-71
2023/10/27 11:25:38;;;;;;;;;;;11.10;99.90;;;;;;5006128;28;19936;-70
2023/10/27 11:28:17;;;;;;;;;;;11.10;99.90;;;;;;5025751;28;19929;-70
2023/10/27 11:30:43;;;;;;;;;;;11.10;99.90;;;;;;4998513;28;19921;-70
2023/10/27 11:33:08;;;;;;;;;;;11.10;99.90;;;;;;5033154;28;19925;-70
2023/10/27 11:35:44;;;;;;;;;;;11.10;99.90;;;;;;4999141;28;19928;-70
2023/10/27 11:38:10;;;;;;;;;;;11.10;99.90;;;;;;5022055;28;19933;-69
2023/10/27 11:40:36;;;;;;;;;;;11.20;99.90;;;;;;4984420;28;20307;-70
2023/10/27 11:43:02;;;;;;;;;;;11.20;99.90;;;;;;5034799;28;19928;-70
2023/10/27 11:45:28;;;;;;;;;;;11.30;99.90;;;;;;4995805;28;19921;-70
2023/10/27 11:47:54;;;;;;;;;;;11.30;99.90;;;;;;5029644;28;20303;-70
2023/10/27 11:50:20;;;;;;;;;;;11.30;99.90;;;;;;4999370;28;19924;-70
2023/10/27 11:52:46;;;;;;;;;;;11.30;99.90;;;;;;5052283;28;20315;-69
2023/10/27 11:55:12;;;;;;;;;;;11.40;99.90;;;;;;4995598;28;19933;-70
2023/10/27 11:57:38;;;;;;;;;;;11.40;99.90;;;;;;5025928;28;19932;-70
2023/10/27 12:00:04;;;;;;;;;;;11.40;99.90;;;;;;4978141;28;21131;-70
2023/10/27 12:02:30;;;;;;;;;;;11.40;99.90;;;;;;5029047;28;19921;-70
2023/10/27 12:04:56;;;;;;;;;;;11.50;99.90;;;;;;4981923;28;19925;-68
2023/10/27 12:07:22;;;;;;;;;;;11.50;99.90;;;;;;5045993;28;19932;-70
2023/10/27 12:09:47;;;;;;;;;;;11.50;99.90;;;;;;5023653;28;19925;-70
2023/10/27 12:12:13;;;;;;;;;;;11.50;99.90;;;;;;5000266;28;19921;-69
2023/10/27 12:14:39;;;;;;;;;;;11.50;99.90;;;;;;4998087;28;19930;-70
2023/10/27 12:17:06;;;;;;;;;;;11.50;99.90;;;;;;5038125;28;19924;-70
2023/10/27 12:19:31;;;;;;;;;;;11.50;99.90;;;;;;5021581;28;20331;-71
2023/10/27 12:21:57;;;;;;;;;;;11.40;99.90;;;;;;5024768;28;19920;-71
2023/10/27 12:24:23;;;;;;;;;;;11.40;99.90;;;;;;5009547;28;19925;-71
2023/10/27 12:26:49;;;;;;;;;;;11.40;99.90;;;;;;5004959;28;19925;-71
2023/10/27 12:29:15;;;;;;;;;;;11.40;99.90;;;;;;4986567;28;20404;-70
2023/10/27 12:31:41;;;;;;;;;;;11.40;99.90;;;;;;5021192;28;19935;-71
2023/10/27 12:34:11;;;;;;;;;;;11.40;99.90;;;;;;5026005;28;19931;-71
2023/10/27 12:36:37;;;;;;;;;;;11.40;99.90;;;;;;5010345;28;21257;-71
2023/10/27 12:39:03;;;;;;;;;;;11.40;99.90;;;;;;5010541;28;19932;-71
2023/10/27 12:41:29;;;;;;;;;;;11.50;99.90;;;;;;5000023;28;19980;-72
2023/10/27 12:43:55;;;;;;;;;;;11.50;99.90;;;;;;5016749;28;19955;-71
2023/10/27 12:46:22;;;;;;;;;;;11.50;99.90;;;;;;4998562;28;19929;-71
2023/10/27 12:48:48;;;;;;;;;;;11.40;99.90;;;;;;5035493;28;20320;-70
2023/10/27 12:51:15;;;;;;;;;;;11.50;99.90;;;;;;5017493;28;20050;-71
2023/10/27 12:53:43;;;;;;;;;;;11.50;99.90;;;;;;5030450;28;19930;-72
2023/10/27 12:56:09;;;;;;;;;;;11.40;99.90;;;;;;5012093;28;20637;-70
2023/10/27 12:58:35;;;;;;;;;;;11.40;99.90;;;;;;5034164;28;19939;-71
2023/10/27 13:01:02;;;;;;;;;;;11.40;99.90;;;;;;5006743;28;19924;-70
2023/10/27 13:03:28;;;;;;;;;;;11.40;99.90;;;;;;5014274;28;19933;-72
2023/10/27 13:05:55;;;;;;;;;;;11.30;99.90;;;;;;4990953;28;19920;-71
2023/10/27 13:08:20;;;;;;;;;;;11.30;99.90;;;;;;5024326;28;19925;-72
2023/10/27 13:10:46;;;;;;;;;;;11.30;99.90;;;;;;5001229;28;19935;-72
2023/10/27 13:13:16;;;;;;;;;;;11.30;99.90;;;;;;5029183;28;19921;-72
2023/10/27 13:15:42;;;;;;;;;;;11.40;99.90;;;;;;5001389;28;19927;-72
2023/10/27 13:18:08;;;;;;;;;;;11.40;99.90;;;;;;5042426;28;19929;-72
2023/10/27 13:20:34;;;;;;;;;;;11.40;99.90;;;;;;5008592;28;19959;-72
2023/10/27 13:23:01;;;;;;;;;;;11.30;99.90;;;;;;5034105;28;19936;-72
2023/10/27 13:25:27;;;;;;;;;;;11.30;99.90;;;;;;5001236;28;19921;-72
2023/10/27 13:27:53;;;;;;;;;;;11.30;99.90;;;;;;5021340;28;20297;-73
2023/10/27 13:30:19;;;;;;;;;;;11.30;99.90;;;;;;4983931;28;19927;-72
2023/10/27 13:32:45;;;;;;;;;;;11.30;99.90;;;;;;5031568;28;19925;-72
2023/10/27 13:35:11;;;;;;;;;;;11.20;99.90;;;;;;5030662;28;19929;-72
2023/10/27 13:37:37;;;;;;;;;;;11.20;99.90;;;;;;5051773;28;19929;-72
2023/10/27 13:40:03;;;;;;;;;;;11.20;99.90;;;;;;4999338;28;19968;-72
2023/10/27 13:42:29;;;;;;;;;;;11.30;99.90;;;;;;5031559;28;19937;-72
2023/10/27 13:44:55;;;;;;;;;;;11.30;99.90;;;;;;5021001;28;19921;-71
2023/10/27 13:47:22;;;;;;;;;;;11.20;99.90;;;;;;5009104;28;19941;-72
2023/10/27 13:49:55;;;;;;;;;;;11.30;99.90;;;;;;5011118;28;19932;-71
2023/10/27 13:52:22;;;;;;;;;;;11.20;99.90;;;;;;4986501;28;19925;-72
2023/10/27 13:54:47;;;;;;;;;;;11.20;99.90;;;;;;5054605;28;19932;-71
2023/10/27 13:57:14;;;;;;;;;;;11.20;99.90;;;;;;5015563;28;20341;-71
2023/10/27 13:59:40;;;;;;;;;;;11.20;99.90;;;;;;5021415;28;19925;-71
2023/10/27 14:02:06;;;;;;;;;;;11.20;99.90;;;;;;4997581;28;19925;-71
2023/10/27 14:04:32;;;;;;;;;;;11.20;99.90;;;;;;5027519;28;19925;-70
2023/10/27 14:06:58;;;;;;;;;;;11.20;99.90;;;;;;5027997;28;20710;-70
2023/10/27 14:09:25;;;;;;;;;;;11.20;99.90;;;;;;5026443;28;19957;-71
2023/10/27 14:11:52;;;;;;;;;;;11.10;99.90;;;;;;5041781;28;19920;-70
2023/10/27 14:14:20;;;;;;;;;;;11.10;99.90;;;;;;5028981;28;20555;-70
2023/10/27 14:16:46;;;;;;;;;;;11.10;99.90;;;;;;5009144;28;19936;-70
2023/10/27 14:19:15;;;;;;;;;;;11.10;99.90;;;;;;5003614;28;19922;-70